createdAt,value
2019-04-05T00:07:17.873Z,6.43
2019-04-05T00:17:20.312Z,7.14
2019-04-05T00:27:22.573Z,7.06
2019-04-05T00:37:23.403Z,7.96
2019-04-05T00:47:24.110Z,7.67
2019-04-05T00:57:25.068Z,7.47
2019-04-05T01:07:25.798Z,7.84
2019-04-05T01:17:27.170Z,7.53
2019-04-05T01:27:28.884Z,5.95
2019-04-05T01:37:29.657Z,5.89
2019-04-05T01:47:30.648Z,7.11
2019-04-05T01:57:31.656Z,6.89
2019-04-05T02:07:32.345Z,6.98
2019-04-05T02:17:35.772Z,7.20
2019-04-05T02:27:36.214Z,6.88
2019-04-05T02:37:37.286Z,7.49
2019-04-05T02:47:39.918Z,7.90
2019-04-05T02:57:43.079Z,8.15
2019-04-05T03:07:44.433Z,5.99
2019-04-05T03:17:45.472Z,7.22
2019-04-05T03:27:46.910Z,7.55
2019-04-05T03:37:47.735Z,7.17
2019-04-05T03:47:48.830Z,6.58
2019-04-05T03:57:49.667Z,4.32
2019-04-05T04:07:50.476Z,5.79
2019-04-05T04:17:51.381Z,4.69
2019-04-05T04:27:52.261Z,5.96
2019-04-05T04:37:53.547Z,7.21
2019-04-05T04:47:56.177Z,7.50
2019-04-05T04:57:57.036Z,7.10
2019-04-05T05:07:57.841Z,7.44
2019-04-05T05:17:59.232Z,7.86
2019-04-05T05:28:00.228Z,7.79
2019-04-05T05:38:01.662Z,8.14
2019-04-05T05:48:03.047Z,7.39
2019-04-05T05:58:03.752Z,7.81
2019-04-05T06:08:04.744Z,7.89
2019-04-05T06:18:05.793Z,6.77
2019-04-05T06:28:06.527Z,8.01
2019-04-05T06:38:07.213Z,8.17
2019-04-05T06:48:19.055Z,8.05
2019-04-05T06:58:19.892Z,6.99
2019-04-05T07:08:18.087Z,7.18
2019-04-05T07:18:26.404Z,8.18
2019-04-05T07:28:20.559Z,8.69
2019-04-05T07:38:21.630Z,8.61
2019-04-05T07:48:23.302Z,9.53
2019-04-05T07:58:24.062Z,9.81
2019-04-05T08:08:34.933Z,9.78
2019-04-05T08:18:35.622Z,8.40
2019-04-05T08:28:36.423Z,6.88
2019-04-05T08:38:39.793Z,7.15
2019-04-05T08:48:40.984Z,7.81
2019-04-05T08:58:41.950Z,7.96
2019-04-05T09:08:42.948Z,7.77
2019-04-05T09:18:43.626Z,8.15
2019-04-05T09:28:45.667Z,9.01
2019-04-05T09:38:46.803Z,8.55
2019-04-05T09:48:47.816Z,8.05
2019-04-05T09:58:48.840Z,8.47
2019-04-05T10:08:50.067Z,8.68
2019-04-05T10:18:51.645Z,8.16
2019-04-05T10:28:53.670Z,8.36
2019-04-05T10:38:54.529Z,8.01
2019-04-05T10:48:55.294Z,7.50
2019-04-05T10:58:57.091Z,8.30
2019-04-05T11:08:58.111Z,8.02
2019-04-05T11:19:01.902Z,8.69
2019-04-05T11:29:01.651Z,8.54
2019-04-05T11:39:06.126Z,7.80
2019-04-05T11:49:07.166Z,7.30
2019-04-05T11:59:07.916Z,8.03
2019-04-05T12:09:09.461Z,8.72
2019-04-05T12:19:10.699Z,8.65
2019-04-05T12:29:11.460Z,7.82
2019-04-05T12:39:12.471Z,8.99
2019-04-05T12:49:15.315Z,8.53
2019-04-05T12:59:16.587Z,8.35
2019-04-05T13:09:17.208Z,8.29
2019-04-05T13:19:18.238Z,8.48
2019-04-05T13:29:19.771Z,9.07
2019-04-05T13:39:21.076Z,8.81
2019-04-05T13:49:22.272Z,9.43
2019-04-05T13:59:23.218Z,9.81
2019-04-05T14:09:24.285Z,9.38
2019-04-05T14:19:25.056Z,9.35
2019-04-05T14:29:25.863Z,9.09
2019-04-05T14:39:26.741Z,9.22
2019-04-05T14:49:31.796Z,8.49
2019-04-05T14:59:32.858Z,8.48
2019-04-05T15:09:35.243Z,8.91
2019-04-05T15:19:37.398Z,9.41
2019-04-05T15:29:38.022Z,9.25
2019-04-05T15:39:44.282Z,9.14
2019-04-05T15:49:44.193Z,9.57
2019-04-05T15:59:45.322Z,9.32
2019-04-05T16:09:46.078Z,9.40
2019-04-05T16:19:46.860Z,8.55
2019-04-05T16:29:47.582Z,8.83
2019-04-05T16:39:48.604Z,9.15
2019-04-05T16:49:53.817Z,8.85
2019-04-05T16:59:54.530Z,9.18
2019-04-05T17:09:55.209Z,9.05
2019-04-05T17:19:55.920Z,9.37
2019-04-05T17:29:56.577Z,9.44
2019-04-05T17:39:57.683Z,9.77
2019-04-05T17:49:58.375Z,10.05
2019-04-05T18:00:01.085Z,10.14
2019-04-05T18:10:03.448Z,10.41
2019-04-05T18:20:04.814Z,10.12
2019-04-05T18:30:08.093Z,9.65
2019-04-05T18:40:15.199Z,8.87
2019-04-05T18:50:17.916Z,8.45
2019-04-05T19:00:18.943Z,9.07
2019-04-05T19:10:19.946Z,8.50
2019-04-05T19:20:20.784Z,8.36
2019-04-05T19:50:34.935Z,9.43
2019-04-05T20:00:50.654Z,8.97
2019-04-05T20:10:50.528Z,9.03
2019-04-05T20:21:11.148Z,8.85
2019-04-05T20:31:20.082Z,9.01
2019-04-05T20:51:59.689Z,9.92
2019-04-05T21:02:04.615Z,9.58
2019-04-05T21:12:05.614Z,9.86
2019-04-05T21:22:06.403Z,10.09
2019-04-05T21:32:11.881Z,9.90
2019-04-05T21:42:12.553Z,9.67
2019-04-05T21:52:13.276Z,10.31
2019-04-05T22:02:13.962Z,9.66
2019-04-05T22:12:14.930Z,9.95
2019-04-05T22:22:15.597Z,10.08
2019-04-05T22:32:16.284Z,9.70
2019-04-05T22:42:18.032Z,9.95
2019-04-05T22:52:19.092Z,8.39
2019-04-05T23:02:19.783Z,8.97
2019-04-05T23:12:20.478Z,9.26
2019-04-05T23:22:21.207Z,9.22
2019-04-05T23:32:21.910Z,9.02
2019-04-05T23:42:22.918Z,9.23
2019-04-05T23:52:23.593Z,9.75
